sensor_id;sensor_type;location;lat;lon;timestamp;temperature;humidity
22956;DHT22;40888;48.148;11.526;2023-04-28T00:01:21;10.30;99.90
22956;DHT22;40888;48.148;11.526;2023-04-28T00:03:46;10.30;99.90
22956;DHT22;40888;48.148;11.526;2023-04-28T00:06:13;10.30;99.90
22956;DHT22;40888;48.148;11.526;2023-04-28T00:08:39;10.30;99.90
22956;DHT22;40888;48.148;11.526;2023-04-28T00:11:11;10.30;99.90
22956;DHT22;40888;48.148;11.526;2023-04-28T00:13:37;10.30;99.90
22956;DHT22;40888;48.148;11.526;2023-04-28T00:16:03;10.30;99.90
22956;DHT22;40888;48.148;11.526;2023-04-28T00:18:29;10.30;99.90
22956;DHT22;40888;48.148;11.526;2023-04-28T00:20:55;10.20;99.90
22956;DHT22;40888;48.148;11.526;2023-04-28T00:23:21;10.10;99.90
22956;DHT22;40888;48.148;11.526;2023-04-28T00:25:54;10.20;99.90
22956;DHT22;40888;48.148;11.526;2023-04-28T00:28:20;10.20;99.90
22956;DHT22;40888;48.148;11.526;2023-04-28T00:30:46;10.30;99.90
22956;DHT22;40888;48.148;11.526;2023-04-28T00:33:12;10.30;99.90
22956;DHT22;40888;48.148;11.526;2023-04-28T00:35:39;10.30;99.90
22956;DHT22;40888;48.148;11.526;2023-04-28T00:38:04;10.30;99.90
22956;DHT22;40888;48.148;11.526;2023-04-28T00:40:34;10.30;99.90
22956;DHT22;40888;48.148;11.526;2023-04-28T00:43:00;10.20;99.90
22956;DHT22;40888;48.148;11.526;2023-04-28T00:45:26;10.30;99.90
22956;DHT22;40888;48.148;11.526;2023-04-28T00:47:51;10.30;99.90
22956;DHT22;40888;48.148;11.526;2023-04-28T00:50:18;10.20;99.90
22956;DHT22;40888;48.148;11.526;2023-04-28T00:52:43;10.20;99.90
22956;DHT22;40888;48.148;11.526;2023-04-28T00:55:09;10.30;99.90
22956;DHT22;40888;48.148;11.526;2023-04-28T00:57:35;10.30;99.90
22956;DHT22;40888;48.148;11.526;2023-04-28T01:00:02;10.30;99.90
22956;DHT22;40888;48.148;11.526;2023-04-28T01:02:28;10.30;99.90
22956;DHT22;40888;48.148;11.526;2023-04-28T01:04:55;10.30;99.90
22956;DHT22;40888;48.148;11.526;2023-04-28T01:07:21;10.40;99.90
22956;DHT22;40888;48.148;11.526;2023-04-28T01:09:47;10.40;99.90
22956;DHT22;40888;48.148;11.526;2023-04-28T01:12:13;10.40;99.90
22956;DHT22;40888;48.148;11.526;2023-04-28T01:14:39;10.40;99.90
22956;DHT22;40888;48.148;11.526;2023-04-28T01:17:05;10.40;99.90
22956;DHT22;40888;48.148;11.526;2023-04-28T01:19:31;10.30;99.90
22956;DHT22;40888;48.148;11.526;2023-04-28T01:21:57;10.40;99.90
22956;DHT22;40888;48.148;11.526;2023-04-28T01:24:23;10.40;99.90
22956;DHT22;40888;48.148;11.526;2023-04-28T01:26:49;10.30;99.90
22956;DHT22;40888;48.148;11.526;2023-04-28T01:29:15;10.40;99.90
22956;DHT22;40888;48.148;11.526;2023-04-28T01:31:40;10.30;99.90
22956;DHT22;40888;48.148;11.526;2023-04-28T01:34:06;10.40;99.90
22956;DHT22;40888;48.148;11.526;2023-04-28T01:36:32;10.40;99.90
22956;DHT22;40888;48.148;11.526;2023-04-28T01:38:58;10.40;99.90
22956;DHT22;40888;48.148;11.526;2023-04-28T01:41:24;10.40;99.90
22956;DHT22;40888;48.148;11.526;2023-04-28T01:43:50;10.30;99.90
22956;DHT22;40888;48.148;11.526;2023-04-28T01:46:16;10.30;99.90
22956;DHT22;40888;48.148;11.526;2023-04-28T01:48:42;10.30;99.90
22956;DHT22;40888;48.148;11.526;2023-04-28T01:51:07;10.30;99.90
22956;DHT22;40888;48.148;11.526;2023-04-28T01:53:33;10.20;99.90
22956;DHT22;40888;48.148;11.526;2023-04-28T01:55:59;10.20;99.90
22956;DHT22;40888;48.148;11.526;2023-04-28T01:58:24;10.10;99.90
22956;DHT22;40888;48.148;11.526;2023-04-28T02:00:50;10.20;99.90
22956;DHT22;40888;48.148;11.526;2023-04-28T02:03:16;10.10;99.90
22956;DHT22;40888;48.148;11.526;2023-04-28T02:05:42;10.20;99.90
22956;DHT22;40888;48.148;11.526;2023-04-28T02:08:07;10.10;99.90
22956;DHT22;40888;48.148;11.526;2023-04-28T02:10:33;10.10;99.90
22956;DHT22;40888;48.148;11.526;2023-04-28T02:12:59;10.10;99.90
22956;DHT22;40888;48.148;11.526;2023-04-28T02:15:24;10.00;99.90
22956;DHT22;40888;48.148;11.526;2023-04-28T02:17:50;10.00;99.90
22956;DHT22;40888;48.148;11.526;2023-04-28T02:20:16;10.00;99.90
22956;DHT22;40888;48.148;11.526;2023-04-28T02:22:42;10.00;99.90
22956;DHT22;40888;48.148;11.526;2023-04-28T02:25:08;10.00;99.90
22956;DHT22;40888;48.148;11.526;2023-04-28T02:27:34;10.10;99.90
22956;DHT22;40888;48.148;11.526;2023-04-28T02:30:06;10.10;99.90
22956;DHT22;40888;48.148;11.526;2023-04-28T02:32:32;10.10;99.90
22956;DHT22;40888;48.148;11.526;2023-04-28T02:34:58;10.20;99.90
22956;DHT22;40888;48.148;11.526;2023-04-28T02:37:24;10.30;99.90
22956;DHT22;40888;48.148;11.526;2023-04-28T02:39:49;10.30;99.90
22956;DHT22;40888;48.148;11.526;2023-04-28T02:42:15;10.40;99.90
22956;DHT22;40888;48.148;11.526;2023-04-28T02:44:41;10.30;99.90
22956;DHT22;40888;48.148;11.526;2023-04-28T02:47:07;10.20;99.90
22956;DHT22;40888;48.148;11.526;2023-04-28T02:49:33;10.10;99.90
22956;DHT22;40888;48.148;11.526;2023-04-28T02:51:58;10.10;99.90
22956;DHT22;40888;48.148;11.526;2023-04-28T02:54:24;10.20;99.90
22956;DHT22;40888;48.148;11.526;2023-04-28T02:56:56;10.20;99.90
22956;DHT22;40888;48.148;11.526;2023-04-28T02:59:23;10.20;99.90
22956;DHT22;40888;48.148;11.526;2023-04-28T03:01:49;10.20;99.90
22956;DHT22;40888;48.148;11.526;2023-04-28T03:04:16;10.10;99.90
22956;DHT22;40888;48.148;11.526;2023-04-28T03:06:42;10.10;99.90
22956;DHT22;40888;48.148;11.526;2023-04-28T03:09:08;10.10;99.90
22956;DHT22;40888;48.148;11.526;2023-04-28T03:11:35;10.10;99.90
22956;DHT22;40888;48.148;11.526;2023-04-28T03:14:01;10.20;99.90
22956;DHT22;40888;48.148;11.526;2023-04-28T03:16:26;10.10;99.90
22956;DHT22;40888;48.148;11.526;2023-04-28T03:18:52;10.10;99.90
22956;DHT22;40888;48.148;11.526;2023-04-28T03:21:18;10.10;99.90
22956;DHT22;40888;48.148;11.526;2023-04-28T03:23:44;10.20;99.90
22956;DHT22;40888;48.148;11.526;2023-04-28T03:26:10;10.10;99.90
22956;DHT22;40888;48.148;11.526;2023-04-28T03:28:35;10.20;99.90
22956;DHT22;40888;48.148;11.526;2023-04-28T03:31:01;10.00;99.90
22956;DHT22;40888;48.148;11.526;2023-04-28T03:33:27;10.00;99.90
22956;DHT22;40888;48.148;11.526;2023-04-28T03:35:53;9.80;99.90
22956;DHT22;40888;48.148;11.526;2023-04-28T03:38:19;9.80;99.90
22956;DHT22;40888;48.148;11.526;2023-04-28T03:40:45;9.80;99.90
22956;DHT22;40888;48.148;11.526;2023-04-28T03:43:11;9.80;99.90
22956;DHT22;40888;48.148;11.526;2023-04-28T03:45:37;9.80;99.90
22956;DHT22;40888;48.148;11.526;2023-04-28T03:48:03;9.80;99.90
22956;DHT22;40888;48.148;11.526;2023-04-28T03:50:29;9.80;99.90
22956;DHT22;40888;48.148;11.526;2023-04-28T03:52:54;9.80;99.90
22956;DHT22;40888;48.148;11.526;2023-04-28T03:55:20;9.90;99.90
22956;DHT22;40888;48.148;11.526;2023-04-28T03:57:46;9.90;99.90
22956;DHT22;40888;48.148;11.526;2023-04-28T04:00:12;9.90;99.90
22956;DHT22;40888;48.148;11.526;2023-04-28T04:02:38;9.90;99.90
22956;DHT22;40888;48.148;11.526;2023-04-28T04:05:04;10.00;99.90
22956;DHT22;40888;48.148;11.526;2023-04-28T04:07:30;9.90;99.90
22956;DHT22;40888;48.148;11.526;2023-04-28T04:09:55;9.90;99.90
22956;DHT22;40888;48.148;11.526;2023-04-28T04:12:21;10.00;99.90
22956;DHT22;40888;48.148;11.526;2023-04-28T04:14:47;10.00;99.90
22956;DHT22;40888;48.148;11.526;2023-04-28T04:17:13;10.10;99.90
22956;DHT22;40888;48.148;11.526;2023-04-28T04:19:39;10.10;99.90
22956;DHT22;40888;48.148;11.526;2023-04-28T04:22:04;10.10;99.90
22956;DHT22;40888;48.148;11.526;2023-04-28T04:24:30;10.10;99.90
22956;DHT22;40888;48.148;11.526;2023-04-28T04:26:56;10.20;99.90
22956;DHT22;40888;48.148;11.526;2023-04-28T04:29:21;10.10;99.90
22956;DHT22;40888;48.148;11.526;2023-04-28T04:31:47;10.10;99.90
22956;DHT22;40888;48.148;11.526;2023-04-28T04:34:14;10.10;99.90
22956;DHT22;40888;48.148;11.526;2023-04-28T04:36:39;10.10;99.90
22956;DHT22;40888;48.148;11.526;2023-04-28T04:39:05;10.20;99.90
22956;DHT22;40888;48.148;11.526;2023-04-28T04:41:31;10.20;99.90
22956;DHT22;40888;48.148;11.526;2023-04-28T04:43:56;10.20;99.90
22956;DHT22;40888;48.148;11.526;2023-04-28T04:46:22;10.20;99.90
22956;DHT22;40888;48.148;11.526;2023-04-28T04:48:48;10.20;99.90
22956;DHT22;40888;48.148;11.526;2023-04-28T04:51:14;10.30;99.90
22956;DHT22;40888;48.148;11.526;2023-04-28T04:53:39;10.40;99.90
22956;DHT22;40888;48.148;11.526;2023-04-28T04:56:05;10.50;99.90
22956;DHT22;40888;48.148;11.526;2023-04-28T04:58:31;10.50;99.90
22956;DHT22;40888;48.148;11.526;2023-04-28T05:00:57;10.60;99.90
22956;DHT22;40888;48.148;11.526;2023-04-28T05:03:23;10.50;99.90
22956;DHT22;40888;48.148;11.526;2023-04-28T05:05:49;10.50;99.90
22956;DHT22;40888;48.148;11.526;2023-04-28T05:08:14;10.50;99.90
22956;DHT22;40888;48.148;11.526;2023-04-28T05:10:40;10.50;99.90
22956;DHT22;40888;48.148;11.526;2023-04-28T05:13:06;10.50;99.90
22956;DHT22;40888;48.148;11.526;2023-04-28T05:15:32;10.50;99.90
22956;DHT22;40888;48.148;11.526;2023-04-28T05:17:57;10.50;99.90
22956;DHT22;40888;48.148;11.526;2023-04-28T05:20:23;10.40;99.90
22956;DHT22;40888;48.148;11.526;2023-04-28T05:22:49;10.40;99.90
22956;DHT22;40888;48.148;11.526;2023-04-28T05:25:15;10.50;99.90
22956;DHT22;40888;48.148;11.526;2023-04-28T05:27:41;10.50;99.90
22956;DHT22;40888;48.148;11.526;2023-04-28T05:30:07;10.50;99.90
22956;DHT22;40888;48.148;11.526;2023-04-28T05:32:34;10.50;99.90
22956;DHT22;40888;48.148;11.526;2023-04-28T05:35:00;10.40;99.90
22956;DHT22;40888;48.148;11.526;2023-04-28T05:37:27;10.40;99.90
22956;DHT22;40888;48.148;11.526;2023-04-28T05:39:53;10.40;99.90
22956;DHT22;40888;48.148;11.526;2023-04-28T05:42:19;10.40;99.90
22956;DHT22;40888;48.148;11.526;2023-04-28T05:44:44;10.40;99.90
22956;DHT22;40888;48.148;11.526;2023-04-28T05:47:10;10.30;99.90
22956;DHT22;40888;48.148;11.526;2023-04-28T05:49:36;10.20;99.90
22956;DHT22;40888;48.148;11.526;2023-04-28T05:52:03;10.30;99.90
22956;DHT22;40888;48.148;11.526;2023-04-28T05:54:29;10.30;99.90
22956;DHT22;40888;48.148;11.526;2023-04-28T05:56:55;10.30;99.90
22956;DHT22;40888;48.148;11.526;2023-04-28T05:59:20;10.30;99.90
22956;DHT22;40888;48.148;11.526;2023-04-28T06:01:46;10.50;99.90
22956;DHT22;40888;48.148;11.526;2023-04-28T06:04:12;10.50;99.90
22956;DHT22;40888;48.148;11.526;2023-04-28T06:06:38;10.40;99.90
22956;DHT22;40888;48.148;11.526;2023-04-28T06:09:04;10.40;99.90
22956;DHT22;40888;48.148;11.526;2023-04-28T06:11:29;10.30;99.90
22956;DHT22;40888;48.148;11.526;2023-04-28T06:13:56;10.30;99.90
22956;DHT22;40888;48.148;11.526;2023-04-28T06:16:21;10.20;99.90
22956;DHT22;40888;48.148;11.526;2023-04-28T06:18:48;10.20;99.90
22956;DHT22;40888;48.148;11.526;2023-04-28T06:21:16;10.20;99.90
22956;DHT22;40888;48.148;11.526;2023-04-28T06:23:41;10.20;99.90
22956;DHT22;40888;48.148;11.526;2023-04-28T06:26:08;10.30;99.90
22956;DHT22;40888;48.148;11.526;2023-04-28T06:28:33;10.30;99.90
22956;DHT22;40888;48.148;11.526;2023-04-28T06:30:59;10.30;99.90
22956;DHT22;40888;48.148;11.526;2023-04-28T06:33:25;10.50;99.90
22956;DHT22;40888;48.148;11.526;2023-04-28T06:35:52;10.60;99.90
22956;DHT22;40888;48.148;11.526;2023-04-28T06:38:18;10.60;99.90
22956;DHT22;40888;48.148;11.526;2023-04-28T06:40:44;10.70;99.90
22956;DHT22;40888;48.148;11.526;2023-04-28T06:43:10;10.60;99.90
22956;DHT22;40888;48.148;11.526;2023-04-28T06:45:37;10.70;99.90
22956;DHT22;40888;48.148;11.526;2023-04-28T06:48:04;10.80;99.90
22956;DHT22;40888;48.148;11.526;2023-04-28T06:50:30;10.80;99.90
22956;DHT22;40888;48.148;11.526;2023-04-28T06:52:56;10.80;99.90
22956;DHT22;40888;48.148;11.526;2023-04-28T06:55:23;10.90;99.90
22956;DHT22;40888;48.148;11.526;2023-04-28T06:57:49;11.00;99.90
22956;DHT22;40888;48.148;11.526;2023-04-28T07:00:15;11.10;99.90
22956;DHT22;40888;48.148;11.526;2023-04-28T07:02:41;11.10;99.90
22956;DHT22;40888;48.148;11.526;2023-04-28T07:05:07;11.30;99.90
22956;DHT22;40888;48.148;11.526;2023-04-28T07:07:34;11.40;99.90
22956;DHT22;40888;48.148;11.526;2023-04-28T07:10:00;11.40;99.90
22956;DHT22;40888;48.148;11.526;2023-04-28T07:12:27;11.50;99.90
22956;DHT22;40888;48.148;11.526;2023-04-28T07:14:52;11.60;99.90
22956;DHT22;40888;48.148;11.526;2023-04-28T07:17:18;11.60;99.90
22956;DHT22;40888;48.148;11.526;2023-04-28T07:19:44;11.60;99.90
22956;DHT22;40888;48.148;11.526;2023-04-28T07:22:09;11.60;99.90
22956;DHT22;40888;48.148;11.526;2023-04-28T07:24:35;11.70;99.90
22956;DHT22;40888;48.148;11.526;2023-04-28T07:27:01;11.70;99.90
22956;DHT22;40888;48.148;11.526;2023-04-28T07:29:28;11.80;99.90
22956;DHT22;40888;48.148;11.526;2023-04-28T07:31:59;11.80;99.90
22956;DHT22;40888;48.148;11.526;2023-04-28T07:34:26;11.80;99.90
22956;DHT22;40888;48.148;11.526;2023-04-28T07:36:52;11.70;99.90
22956;DHT22;40888;48.148;11.526;2023-04-28T07:39:17;11.70;99.90
22956;DHT22;40888;48.148;11.526;2023-04-28T07:41:43;11.70;99.90
22956;DHT22;40888;48.148;11.526;2023-04-28T07:44:09;11.60;99.90
22956;DHT22;40888;48.148;11.526;2023-04-28T07:46:35;11.70;99.90
22956;DHT22;40888;48.148;11.526;2023-04-28T07:49:01;11.70;99.90
22956;DHT22;40888;48.148;11.526;2023-04-28T07:51:27;11.70;99.90
22956;DHT22;40888;48.148;11.526;2023-04-28T07:53:53;11.80;99.90
22956;DHT22;40888;48.148;11.526;2023-04-28T07:56:19;11.70;99.90
22956;DHT22;40888;48.148;11.526;2023-04-28T07:58:46;11.60;99.90
22956;DHT22;40888;48.148;11.526;2023-04-28T08:01:12;11.60;99.90
22956;DHT22;40888;48.148;11.526;2023-04-28T08:03:38;11.70;99.90
22956;DHT22;40888;48.148;11.526;2023-04-28T08:06:03;11.70;99.90
22956;DHT22;40888;48.148;11.526;2023-04-28T08:08:29;11.40;99.90
22956;DHT22;40888;48.148;11.526;2023-04-28T08:10:55;11.40;99.90
22956;DHT22;40888;48.148;11.526;2023-04-28T08:13:21;11.50;99.90
22956;DHT22;40888;48.148;11.526;2023-04-28T08:15:47;11.50;99.90
22956;DHT22;40888;48.148;11.526;2023-04-28T08:18:14;11.50;99.90
22956;DHT22;40888;48.148;11.526;2023-04-28T08:20:40;11.40;99.90
22956;DHT22;40888;48.148;11.526;2023-04-28T08:23:06;11.40;99.90
22956;DHT22;40888;48.148;11.526;2023-04-28T08:25:32;11.40;99.90
22956;DHT22;40888;48.148;11.526;2023-04-28T08:27:58;11.30;99.90
22956;DHT22;40888;48.148;11.526;2023-04-28T08:30:24;11.30;99.90
22956;DHT22;40888;48.148;11.526;2023-04-28T08:32:49;11.20;99.90
22956;DHT22;40888;48.148;11.526;2023-04-28T08:35:15;11.20;99.90
22956;DHT22;40888;48.148;11.526;2023-04-28T08:37:42;11.30;99.90
22956;DHT22;40888;48.148;11.526;2023-04-28T08:40:08;11.30;99.90
22956;DHT22;40888;48.148;11.526;2023-04-28T08:42:35;11.20;99.90
22956;DHT22;40888;48.148;11.526;2023-04-28T08:45:03;11.20;99.90
22956;DHT22;40888;48.148;11.526;2023-04-28T08:47:34;11.10;99.90
22956;DHT22;40888;48.148;11.526;2023-04-28T08:50:06;11.20;99.90
22956;DHT22;40888;48.148;11.526;2023-04-28T08:52:33;11.20;99.90
22956;DHT22;40888;48.148;11.526;2023-04-28T08:55:00;11.20;99.90
22956;DHT22;40888;48.148;11.526;2023-04-28T08:57:31;11.20;99.90
22956;DHT22;40888;48.148;11.526;2023-04-28T08:59:59;11.20;99.90
22956;DHT22;40888;48.148;11.526;2023-04-28T09:02:25;11.30;99.90
22956;DHT22;40888;48.148;11.526;2023-04-28T09:04:51;11.40;99.90
22956;DHT22;40888;48.148;11.526;2023-04-28T09:07:17;11.30;99.90
22956;DHT22;40888;48.148;11.526;2023-04-28T09:09:42;11.40;99.90
22956;DHT22;40888;48.148;11.526;2023-04-28T09:12:10;11.40;99.90
22956;DHT22;40888;48.148;11.526;2023-04-28T09:14:37;11.40;99.90
22956;DHT22;40888;48.148;11.526;2023-04-28T09:17:11;11.40;99.90
22956;DHT22;40888;48.148;11.526;2023-04-28T09:19:38;11.50;99.90
22956;DHT22;40888;48.148;11.526;2023-04-28T09:22:05;11.60;99.90
22956;DHT22;40888;48.148;11.526;2023-04-28T09:27:01;11.60;99.90
22956;DHT22;40888;48.148;11.526;2023-04-28T09:29:31;11.40;99.90
22956;DHT22;40888;48.148;11.526;2023-04-28T09:34:50;11.40;99.90
22956;DHT22;40888;48.148;11.526;2023-04-28T09:37:20;11.40;99.90
22956;DHT22;40888;48.148;11.526;2023-04-28T09:39:48;11.40;99.90
22956;DHT22;40888;48.148;11.526;2023-04-28T09:45:04;10.90;99.90
22956;DHT22;40888;48.148;11.526;2023-04-28T09:47:31;10.70;99.90
22956;DHT22;40888;48.148;11.526;2023-04-28T09:50:02;10.50;99.90
22956;DHT22;40888;48.148;11.526;2023-04-28T09:52:28;10.40;99.90
22956;DHT22;40888;48.148;11.526;2023-04-28T09:54:55;10.40;99.90
22956;DHT22;40888;48.148;11.526;2023-04-28T09:57:21;10.40;99.90
22956;DHT22;40888;48.148;11.526;2023-04-28T09:59:49;10.40;99.90
22956;DHT22;40888;48.148;11.526;2023-04-28T10:02:16;10.40;99.90
22956;DHT22;40888;48.148;11.526;2023-04-28T10:04:44;10.50;99.90
22956;DHT22;40888;48.148;11.526;2023-04-28T10:07:14;10.60;99.90
22956;DHT22;40888;48.148;11.526;2023-04-28T10:09:45;10.50;99.90
22956;DHT22;40888;48.148;11.526;2023-04-28T10:12:18;10.50;99.90
22956;DHT22;40888;48.148;11.526;2023-04-28T10:14:46;10.70;99.90
22956;DHT22;40888;48.148;11.526;2023-04-28T10:17:16;10.70;99.90
22956;DHT22;40888;48.148;11.526;2023-04-28T10:19:46;10.70;99.90
22956;DHT22;40888;48.148;11.526;2023-04-28T10:27:37;10.70;99.90
22956;DHT22;40888;48.148;11.526;2023-04-28T10:30:18;10.80;99.90
22956;DHT22;40888;48.148;11.526;2023-04-28T10:32:44;10.80;99.90
22956;DHT22;40888;48.148;11.526;2023-04-28T10:38:15;10.80;99.90
22956;DHT22;40888;48.148;11.526;2023-04-28T10:43:09;10.80;99.90
22956;DHT22;40888;48.148;11.526;2023-04-28T10:48:14;10.80;99.90
22956;DHT22;40888;48.148;11.526;2023-04-28T10:56:15;10.80;99.90
22956;DHT22;40888;48.148;11.526;2023-04-28T10:58:44;10.80;99.90
22956;DHT22;40888;48.148;11.526;2023-04-28T11:01:23;10.90;99.90
22956;DHT22;40888;48.148;11.526;2023-04-28T11:12:04;11.00;99.90
22956;DHT22;40888;48.148;11.526;2023-04-28T11:14:38;10.90;99.90
22956;DHT22;40888;48.148;11.526;2023-04-28T11:17:07;11.00;99.90
22956;DHT22;40888;48.148;11.526;2023-04-28T11:19:39;10.90;99.90
22956;DHT22;40888;48.148;11.526;2023-04-28T11:22:12;10.90;99.90
22956;DHT22;40888;48.148;11.526;2023-04-28T11:24:38;10.90;99.90
22956;DHT22;40888;48.148;11.526;2023-04-28T11:27:04;11.00;99.90
22956;DHT22;40888;48.148;11.526;2023-04-28T11:29:35;11.00;99.90
22956;DHT22;40888;48.148;11.526;2023-04-28T11:32:02;10.90;99.90
22956;DHT22;40888;48.148;11.526;2023-04-28T11:34:28;10.90;99.90
22956;DHT22;40888;48.148;11.526;2023-04-28T11:36:54;11.00;99.90
22956;DHT22;40888;48.148;11.526;2023-04-28T11:39:32;10.90;99.90
22956;DHT22;40888;48.148;11.526;2023-04-28T11:42:08;11.00;99.90
22956;DHT22;40888;48.148;11.526;2023-04-28T11:44:35;11.00;99.90
22956;DHT22;40888;48.148;11.526;2023-04-28T11:47:02;11.00;99.90
22956;DHT22;40888;48.148;11.526;2023-04-28T11:49:31;11.00;99.90
22956;DHT22;40888;48.148;11.526;2023-04-28T11:52:07;11.10;99.90
22956;DHT22;40888;48.148;11.526;2023-04-28T11:54:34;11.10;99.90
22956;DHT22;40888;48.148;11.526;2023-04-28T11:57:00;11.10;99.90
22956;DHT22;40888;48.148;11.526;2023-04-28T11:59:30;11.20;99.90
22956;DHT22;40888;48.148;11.526;2023-04-28T12:02:05;11.20;99.90
22956;DHT22;40888;48.148;11.526;2023-04-28T12:04:39;11.10;99.90
22956;DHT22;40888;48.148;11.526;2023-04-28T12:07:13;11.20;99.90
22956;DHT22;40888;48.148;11.526;2023-04-28T12:09:43;11.30;99.90
22956;DHT22;40888;48.148;11.526;2023-04-28T12:12:12;11.30;99.90
22956;DHT22;40888;48.148;11.526;2023-04-28T12:15:01;11.30;99.90
22956;DHT22;40888;48.148;11.526;2023-04-28T12:17:28;11.40;99.90
22956;DHT22;40888;48.148;11.526;2023-04-28T12:19:55;11.40;99.90
22956;DHT22;40888;48.148;11.526;2023-04-28T12:22:22;11.30;99.90
22956;DHT22;40888;48.148;11.526;2023-04-28T12:25:03;11.40;99.90
22956;DHT22;40888;48.148;11.526;2023-04-28T12:27:29;11.50;99.90
22956;DHT22;40888;48.148;11.526;2023-04-28T12:29:56;11.60;99.90
22956;DHT22;40888;48.148;11.526;2023-04-28T12:32:39;11.60;99.90
22956;DHT22;40888;48.148;11.526;2023-04-28T12:35:06;11.70;99.90
22956;DHT22;40888;48.148;11.526;2023-04-28T12:37:32;11.80;99.90
22956;DHT22;40888;48.148;11.526;2023-04-28T12:39:58;11.70;99.90
22956;DHT22;40888;48.148;11.526;2023-04-28T12:42:23;11.80;99.90
22956;DHT22;40888;48.148;11.526;2023-04-28T12:44:49;12.00;99.90
22956;DHT22;40888;48.148;11.526;2023-04-28T12:47:15;11.90;99.90
22956;DHT22;40888;48.148;11.526;2023-04-28T12:49:44;11.90;99.90
22956;DHT22;40888;48.148;11.526;2023-04-28T12:52:09;12.00;99.90
22956;DHT22;40888;48.148;11.526;2023-04-28T12:54:35;12.00;99.90
22956;DHT22;40888;48.148;11.526;2023-04-28T12:57:03;12.00;99.90
22956;DHT22;40888;48.148;11.526;2023-04-28T12:59:30;12.10;99.90
22956;DHT22;40888;48.148;11.526;2023-04-28T13:01:56;12.10;99.90
22956;DHT22;40888;48.148;11.526;2023-04-28T13:04:21;12.10;99.90
22956;DHT22;40888;48.148;11.526;2023-04-28T13:06:47;12.10;99.90
22956;DHT22;40888;48.148;11.526;2023-04-28T13:09:14;12.10;99.90
22956;DHT22;40888;48.148;11.526;2023-04-28T13:11:40;12.20;99.90
22956;DHT22;40888;48.148;11.526;2023-04-28T13:14:07;12.30;99.90
22956;DHT22;40888;48.148;11.526;2023-04-28T13:16:33;12.20;99.90
22956;DHT22;40888;48.148;11.526;2023-04-28T13:19:00;12.20;99.90
22956;DHT22;40888;48.148;11.526;2023-04-28T13:21:26;12.30;99.90
22956;DHT22;40888;48.148;11.526;2023-04-28T13:23:53;12.40;99.90
22956;DHT22;40888;48.148;11.526;2023-04-28T13:26:20;12.30;99.90
22956;DHT22;40888;48.148;11.526;2023-04-28T13:28:48;12.30;99.90
22956;DHT22;40888;48.148;11.526;2023-04-28T13:31:14;12.30;99.90
22956;DHT22;40888;48.148;11.526;2023-04-28T13:33:40;12.30;99.90
22956;DHT22;40888;48.148;11.526;2023-04-28T13:36:06;12.40;99.90
22956;DHT22;40888;48.148;11.526;2023-04-28T13:38:33;12.40;99.90
22956;DHT22;40888;48.148;11.526;2023-04-28T13:40:59;12.50;99.90
22956;DHT22;40888;48.148;11.526;2023-04-28T13:43:25;12.40;99.90
22956;DHT22;40888;48.148;11.526;2023-04-28T13:45:51;12.60;99.90
22956;DHT22;40888;48.148;11.526;2023-04-28T13:48:18;12.70;99.90
22956;DHT22;40888;48.148;11.526;2023-04-28T13:50:43;12.70;99.90
22956;DHT22;40888;48.148;11.526;2023-04-28T13:53:09;12.80;99.90
22956;DHT22;40888;48.148;11.526;2023-04-28T13:55:36;12.80;99.90
22956;DHT22;40888;48.148;11.526;2023-04-28T13:58:02;12.80;99.90
22956;DHT22;40888;48.148;11.526;2023-04-28T14:00:33;12.90;99.90
22956;DHT22;40888;48.148;11.526;2023-04-28T14:02:59;12.90;99.90
22956;DHT22;40888;48.148;11.526;2023-04-28T14:05:26;12.90;99.90
22956;DHT22;40888;48.148;11.526;2023-04-28T14:07:55;13.00;99.90
22956;DHT22;40888;48.148;11.526;2023-04-28T14:10:21;13.10;99.90
22956;DHT22;40888;48.148;11.526;2023-04-28T14:12:47;13.10;99.90
22956;DHT22;40888;48.148;11.526;2023-04-28T14:15:14;13.20;99.90
22956;DHT22;40888;48.148;11.526;2023-04-28T14:17:41;13.20;99.90
22956;DHT22;40888;48.148;11.526;2023-04-28T14:20:07;13.30;99.90
22956;DHT22;40888;48.148;11.526;2023-04-28T14:22:37;13.30;99.90
22956;DHT22;40888;48.148;11.526;2023-04-28T14:25:03;13.30;99.90
22956;DHT22;40888;48.148;11.526;2023-04-28T14:27:28;13.30;99.90
22956;DHT22;40888;48.148;11.526;2023-04-28T14:29:54;13.20;99.90
22956;DHT22;40888;48.148;11.526;2023-04-28T14:32:20;13.20;99.90
22956;DHT22;40888;48.148;11.526;2023-04-28T14:34:49;13.20;99.90
22956;DHT22;40888;48.148;11.526;2023-04-28T14:37:16;13.20;99.90
22956;DHT22;40888;48.148;11.526;2023-04-28T14:39:45;13.10;99.90
22956;DHT22;40888;48.148;11.526;2023-04-28T14:42:11;13.20;99.90
22956;DHT22;40888;48.148;11.526;2023-04-28T14:44:37;13.20;99.90
22956;DHT22;40888;48.148;11.526;2023-04-28T14:47:03;13.30;99.90
22956;DHT22;40888;48.148;11.526;2023-04-28T14:49:29;13.20;99.90
22956;DHT22;40888;48.148;11.526;2023-04-28T14:51:55;13.20;99.90
22956;DHT22;40888;48.148;11.526;2023-04-28T14:54:21;13.20;99.90
22956;DHT22;40888;48.148;11.526;2023-04-28T14:56:48;13.20;99.90
22956;DHT22;40888;48.148;11.526;2023-04-28T14:59:14;13.20;99.90
22956;DHT22;40888;48.148;11.526;2023-04-28T15:01:40;13.30;99.90
22956;DHT22;40888;48.148;11.526;2023-04-28T15:04:07;13.30;99.90
22956;DHT22;40888;48.148;11.526;2023-04-28T15:06:34;13.20;99.90
22956;DHT22;40888;48.148;11.526;2023-04-28T15:09:00;13.20;99.90
22956;DHT22;40888;48.148;11.526;2023-04-28T15:11:26;13.30;99.90
22956;DHT22;40888;48.148;11.526;2023-04-28T15:13:52;13.30;99.90
22956;DHT22;40888;48.148;11.526;2023-04-28T15:16:18;13.30;99.90
22956;DHT22;40888;48.148;11.526;2023-04-28T15:18:43;13.20;99.90
22956;DHT22;40888;48.148;11.526;2023-04-28T15:21:11;13.20;99.90
22956;DHT22;40888;48.148;11.526;2023-04-28T15:23:36;13.20;99.90
22956;DHT22;40888;48.148;11.526;2023-04-28T15:26:02;13.30;99.90
22956;DHT22;40888;48.148;11.526;2023-04-28T15:28:29;13.20;99.90
22956;DHT22;40888;48.148;11.526;2023-04-28T15:30:55;13.20;99.90
22956;DHT22;40888;48.148;11.526;2023-04-28T15:33:21;13.20;99.90
22956;DHT22;40888;48.148;11.526;2023-04-28T15:35:50;13.00;99.90
22956;DHT22;40888;48.148;11.526;2023-04-28T15:38:16;12.90;99.90
22956;DHT22;40888;48.148;11.526;2023-04-28T15:40:42;12.90;99.90
22956;DHT22;40888;48.148;11.526;2023-04-28T15:43:09;12.90;99.90
22956;DHT22;40888;48.148;11.526;2023-04-28T15:45:34;12.90;99.90
22956;DHT22;40888;48.148;11.526;2023-04-28T15:48:01;12.80;99.90
22956;DHT22;40888;48.148;11.526;2023-04-28T15:50:29;12.80;99.90